Station Historical Data
Daily Summary for June 25, 2012 Units:  Both    English   Metric
« Previous Day
Next Day »
Daily Weekly Monthly Yearly Custom
  High: Low: Average:
Temperature: 95.3 °F /  35.2 °C 73.0 °F /  22.8 °C 84.1 °F /  28.9 °C
Dew Point: 67.5 °F /  19.7 °C 57.2 °F /  14 °C 62.3 °F /  16.8 °C
Humidity: 62% 34% 49%
Wind Speed: 13.0mph /  20.9km/h - 4.2mph /  6.8km/h
Wind Gust: 19.0mph /  30.6km/h - -
Wind- - ESE
Pressure: 29.81 in /  1009.4 hPa 29.67 in /  1004.6 hPa -
Precipitation: 0.00 in /  0 mm    
Historical Graphs
 
 
Tabular Data for June 25, 2012
Time Temperature Dew Point Pressure Wind Wind Speed Wind Gust Humidity Rainfall Rate (Hourly) Conditions
00:00 79.1 °F /  26.2 °C 58.3 °F /  14.6 °C 29.81in /  1009.4hPa NW 2.0mph /  3.2km/h 4.0mph /  6.4km/h 49% 0.00in /  0mm
00:05 79.1 °F /  26.2 °C 58.3 °F /  14.6 °C 29.80in /  1009hPa NNW 3.0mph /  4.8km/h 5.0mph /  8km/h 49% 0.00in /  0mm
00:10 78.9 °F /  26.1 °C 58.7 °F /  14.8 °C 29.80in /  1009hPa North 3.0mph /  4.8km/h 4.0mph /  6.4km/h 50% 0.00in /  0mm
00:15 78.7 °F /  25.9 °C 58.5 °F /  14.7 °C 29.81in /  1009.4hPa North 3.0mph /  4.8km/h 4.0mph /  6.4km/h 50% 0.00in /  0mm
00:20 78.6 °F /  25.9 °C 58.4 °F /  14.7 °C 29.81in /  1009.4hPa North 2.0mph /  3.2km/h 5.0mph /  8km/h 50% 0.00in /  0mm
00:25 78.5 °F /  25.8 °C 58.3 °F /  14.6 °C 29.81in /  1009.4hPa NNW 1.0mph /  1.6km/h 4.0mph /  6.4km/h 50% 0.00in /  0mm
00:30 78.5 °F /  25.8 °C 58.3 °F /  14.6 °C 29.81in /  1009.4hPa NNE 2.0mph /  3.2km/h 5.0mph /  8km/h 50% 0.00in /  0mm
00:35 78.5 °F /  25.8 °C 58.3 °F /  14.6 °C 29.81in /  1009.4hPa NE 2.0mph /  3.2km/h 5.0mph /  8km/h 50% 0.00in /  0mm
00:40 78.5 °F /  25.8 °C 58.3 °F /  14.6 °C 29.81in /  1009.4hPa North 2.0mph /  3.2km/h 3.0mph /  4.8km/h 50% 0.00in /  0mm
00:45 78.4 °F /  25.8 °C 58.2 °F /  14.6 °C 29.80in /  1009hPa NNE 3.0mph /  4.8km/h 5.0mph /  8km/h 50% 0.00in /  0mm
00:50 78.4 °F /  25.8 °C 58.2 °F /  14.6 °C 29.80in /  1009hPa NNE 2.0mph /  3.2km/h 4.0mph /  6.4km/h 50% 0.00in /  0mm
00:55 78.5 °F /  25.8 °C 58.3 °F /  14.6 °C 29.80in /  1009hPa NNE 2.0mph /  3.2km/h 4.0mph /  6.4km/h 50% 0.00in /  0mm
01:00 78.5 °F /  25.8 °C 57.8 °F /  14.3 °C 29.80in /  1009hPa NNE 1.0mph /  1.6km/h 4.0mph /  6.4km/h 49% 0.00in /  0mm
01:05 78.3 °F /  25.7 °C 58.2 °F /  14.6 °C 29.80in /  1009hPa NNE 3.0mph /  4.8km/h 3.0mph /  4.8km/h 50% 0.00in /  0mm
01:10 78.3 °F /  25.7 °C 58.2 °F /  14.6 °C 29.80in /  1009hPa NNE 2.0mph /  3.2km/h 4.0mph /  6.4km/h 50% 0.00in /  0mm
01:15 78.2 °F /  25.7 °C 58.1 °F /  14.5 °C 29.80in /  1009hPa NNE 1.0mph /  1.6km/h 3.0mph /  4.8km/h 50% 0.00in /  0mm
01:20 78.0 °F /  25.6 °C 57.9 °F /  14.4 °C 29.80in /  1009hPa NE 2.0mph /  3.2km/h 4.0mph /  6.4km/h 50% 0.00in /  0mm
01:25 77.9 °F /  25.5 °C 57.8 °F /  14.3 °C 29.80in /  1009hPa NE 3.0mph /  4.8km/h 3.0mph /  4.8km/h 50% 0.00in /  0mm
01:30 77.9 °F /  25.5 °C 57.8 °F /  14.3 °C 29.80in /  1009hPa NNE 2.0mph /  3.2km/h 4.0mph /  6.4km/h 50% 0.00in /  0mm
01:35 77.9 °F /  25.5 °C 57.8 °F /  14.3 °C 29.80in /  1009hPa NE 3.0mph /  4.8km/h 3.0mph /  4.8km/h 50% 0.00in /  0mm
01:40 77.8 °F /  25.4 °C 57.7 °F /  14.3 °C 29.80in /  1009hPa NE 2.0mph /  3.2km/h 5.0mph /  8km/h 50% 0.00in /  0mm
01:45 77.8 °F /  25.4 °C 57.7 °F /  14.3 °C 29.80in /  1009hPa NNE 2.0mph /  3.2km/h 3.0mph /  4.8km/h 50% 0.00in /  0mm
01:50 77.6 °F /  25.3 °C 57.5 °F /  14.2 °C 29.79in /  1008.7hPa NE 3.0mph /  4.8km/h 4.0mph /  6.4km/h 50% 0.00in /  0mm
01:55 77.5 °F /  25.3 °C 57.4 °F /  14.1 °C 29.79in /  1008.7hPa NNE 1.0mph /  1.6km/h 3.0mph /  4.8km/h 50% 0.00in /  0mm
02:00 77.3 °F /  25.2 °C 57.8 °F /  14.3 °C 29.79in /  1008.7hPa NNE 1.0mph /  1.6km/h 3.0mph /  4.8km/h 51% 0.00in /  0mm
02:05 77.1 °F /  25.1 °C 57.6 °F /  14.2 °C 29.79in /  1008.7hPa NNE 1.0mph /  1.6km/h 3.0mph /  4.8km/h 51% 0.00in /  0mm
02:10 76.9 °F /  24.9 °C 57.4 °F /  14.1 °C 29.79in /  1008.7hPa NE 1.0mph /  1.6km/h 2.0mph /  3.2km/h 51% 0.00in /  0mm
02:16 76.6 °F /  24.8 °C 57.7 °F /  14.3 °C 29.79in /  1008.7hPa North 1.0mph /  1.6km/h 3.0mph /  4.8km/h 52% 0.00in /  0mm
02:21 76.4 °F /  24.7 °C 57.5 °F /  14.2 °C 29.78in /  1008.4hPa Calm   2.0mph /  3.2km/h 52% 0.00in /  0mm
02:26 76.1 °F /  24.5 °C 57.2 °F /  14 °C 29.78in /  1008.4hPa NNE 1.0mph /  1.6km/h 1.0mph /  1.6km/h 52% 0.00in /  0mm
02:31 75.9 °F /  24.4 °C 57.6 °F /  14.2 °C 29.78in /  1008.4hPa NE 1.0mph /  1.6km/h 1.0mph /  1.6km/h 53% 0.00in /  0mm
02:36 75.6 °F /  24.2 °C 57.3 °F /  14.1 °C 29.78in /  1008.4hPa NNE 1.0mph /  1.6km/h 2.0mph /  3.2km/h 53% 0.00in /  0mm
02:41 75.4 °F /  24.1 °C 57.6 °F /  14.2 °C 29.78in /  1008.4hPa NE 2.0mph /  3.2km/h 2.0mph /  3.2km/h 54% 0.00in /  0mm
02:46 75.3 °F /  24.1 °C 57.5 °F /  14.2 °C 29.78in /  1008.4hPa NE 2.0mph /  3.2km/h 3.0mph /  4.8km/h 54% 0.00in /  0mm
02:51 75.4 °F /  24.1 °C 57.6 °F /  14.2 °C 29.78in /  1008.4hPa NNE 2.0mph /  3.2km/h 3.0mph /  4.8km/h 54% 0.00in /  0mm
02:56 75.4 °F /  24.1 °C 57.6 °F /  14.2 °C 29.78in /  1008.4hPa NE 1.0mph /  1.6km/h 3.0mph /  4.8km/h 54% 0.00in /  0mm
03:01 75.3 °F /  24.1 °C 57.5 °F /  14.2 °C 29.78in /  1008.4hPa NNE 1.0mph /  1.6km/h 2.0mph /  3.2km/h 54% 0.00in /  0mm
03:06 75.2 °F /  24 °C 57.4 °F /  14.1 °C 29.78in /  1008.4hPa North 2.0mph /  3.2km/h 3.0mph /  4.8km/h 54% 0.00in /  0mm
03:11 74.9 °F /  23.8 °C 57.7 °F /  14.3 °C 29.78in /  1008.4hPa North 1.0mph /  1.6km/h 3.0mph /  4.8km/h 55% 0.00in /  0mm
03:16 74.6 °F /  23.7 °C 57.4 °F /  14.1 °C 29.78in /  1008.4hPa NNE 1.0mph /  1.6km/h 3.0mph /  4.8km/h 55% 0.00in /  0mm
03:21 74.5 °F /  23.6 °C 57.8 °F /  14.3 °C 29.78in /  1008.4hPa NNE 2.0mph /  3.2km/h 2.0mph /  3.2km/h 56% 0.00in /  0mm
03:27 74.2 °F /  23.4 °C 57.5 °F /  14.2 °C 29.77in /  1008hPa NNW 2.0mph /  3.2km/h 3.0mph /  4.8km/h 56% 0.00in /  0mm
03:31 73.9 °F /  23.3 °C 57.7 °F /  14.3 °C 29.77in /  1008hPa North 3.0mph /  4.8km/h 3.0mph /  4.8km/h 57% 0.00in /  0mm
03:37 73.9 °F /  23.3 °C 57.7 °F /  14.3 °C 29.77in /  1008hPa NNW 3.0mph /  4.8km/h 3.0mph /  4.8km/h 57% 0.00in /  0mm
03:42 73.7 °F /  23.2 °C 58.0 °F /  14.4 °C 29.77in /  1008hPa NNW 2.0mph /  3.2km/h 3.0mph /  4.8km/h 58% 0.00in /  0mm
03:47 73.8 °F /  23.2 °C 58.1 °F /  14.5 °C 29.77in /  1008hPa North 3.0mph /  4.8km/h 3.0mph /  4.8km/h 58% 0.00in /  0mm
03:52 73.9 °F /  23.3 °C 58.2 °F /  14.6 °C 29.77in /  1008hPa NNW 2.0mph /  3.2km/h 4.0mph /  6.4km/h 58% 0.00in /  0mm
03:57 74.0 °F /  23.3 °C 58.3 °F /  14.6 °C 29.77in /  1008hPa NNE 3.0mph /  4.8km/h 3.0mph /  4.8km/h 58% 0.00in /  0mm
04:02 74.2 °F /  23.4 °C 58.0 °F /  14.4 °C 29.77in /  1008hPa NW 2.0mph /  3.2km/h 3.0mph /  4.8km/h 57% 0.00in /  0mm
04:07 74.4 °F /  23.6 °C 58.2 °F /  14.6 °C 29.77in /  1008hPa NNW 2.0mph /  3.2km/h 4.0mph /  6.4km/h 57% 0.00in /  0mm
04:12 74.5 °F /  23.6 °C 58.3 °F /  14.6 °C 29.77in /  1008hPa North 2.0mph /  3.2km/h 4.0mph /  6.4km/h 57% 0.00in /  0mm
04:17 74.4 °F /  23.6 °C 58.2 °F /  14.6 °C 29.77in /  1008hPa NW 4.0mph /  6.4km/h 6.0mph /  9.7km/h 57% 0.00in /  0mm
04:22 74.5 °F /  23.6 °C 58.3 °F /  14.6 °C 29.77in /  1008hPa North 3.0mph /  4.8km/h 4.0mph /  6.4km/h 57% 0.00in /  0mm
04:27 74.6 °F /  23.7 °C 58.4 °F /  14.7 °C 29.77in /  1008hPa NNE 2.0mph /  3.2km/h 4.0mph /  6.4km/h 57% 0.00in /  0mm
04:32 74.8 °F /  23.8 °C 58.6 °F /  14.8 °C 29.77in /  1008hPa NNE 4.0mph /  6.4km/h 4.0mph /  6.4km/h 57% 0.00in /  0mm
04:37 75.0 °F /  23.9 °C 58.8 °F /  14.9 °C 29.77in /  1008hPa North 3.0mph /  4.8km/h 5.0mph /  8km/h 57% 0.00in /  0mm
04:42 75.0 °F /  23.9 °C 58.3 °F /  14.6 °C 29.77in /  1008hPa NNE 1.0mph /  1.6km/h 5.0mph /  8km/h 56% 0.00in /  0mm
04:47 75.0 °F /  23.9 °C 58.8 °F /  14.9 °C 29.77in /  1008hPa NNE 3.0mph /  4.8km/h 6.0mph /  9.7km/h 57% 0.00in /  0mm
04:52 75.0 °F /  23.9 °C 58.8 °F /  14.9 °C 29.77in /  1008hPa NNE 4.0mph /  6.4km/h 4.0mph /  6.4km/h 57% 0.00in /  0mm
04:57 74.9 °F /  23.8 °C 58.7 °F /  14.8 °C 29.77in /  1008hPa NNE 2.0mph /  3.2km/h 4.0mph /  6.4km/h 57% 0.00in /  0mm
05:02 74.8 °F /  23.8 °C 58.6 °F /  14.8 °C 29.77in /  1008hPa NE 2.0mph /  3.2km/h 4.0mph /  6.4km/h 57% 0.00in /  0mm
05:08 74.7 °F /  23.7 °C 58.5 °F /  14.7 °C 29.77in /  1008hPa NNW 1.0mph /  1.6km/h 5.0mph /  8km/h 57% 0.00in /  0mm
05:13 74.5 °F /  23.6 °C 58.8 °F /  14.9 °C 29.77in /  1008hPa NE 3.0mph /  4.8km/h 4.0mph /  6.4km/h 58% 0.00in /  0mm
05:18 74.4 °F /  23.6 °C 58.7 °F /  14.8 °C 29.77in /  1008hPa NNE 2.0mph /  3.2km/h 4.0mph /  6.4km/h 58% 0.00in /  0mm
05:23 74.3 °F /  23.5 °C 58.6 °F /  14.8 °C 29.77in /  1008hPa NE 3.0mph /  4.8km/h 5.0mph /  8km/h 58% 0.00in /  0mm
05:28 74.3 °F /  23.5 °C 58.6 °F /  14.8 °C 29.77in /  1008hPa NNE 4.0mph /  6.4km/h 5.0mph /  8km/h 58% 0.00in /  0mm
05:33 74.1 °F /  23.4 °C 58.9 °F /  14.9 °C 29.77in /  1008hPa NNE 4.0mph /  6.4km/h 6.0mph /  9.7km/h 59% 0.00in /  0mm
05:38 74.0 °F /  23.3 °C 58.8 °F /  14.9 °C 29.77in /  1008hPa NE 3.0mph /  4.8km/h 4.0mph /  6.4km/h 59% 0.00in /  0mm
05:43 74.0 °F /  23.3 °C 58.8 °F /  14.9 °C 29.77in /  1008hPa NE 2.0mph /  3.2km/h 5.0mph /  8km/h 59% 0.00in /  0mm
05:48 73.9 °F /  23.3 °C 59.2 °F /  15.1 °C 29.78in /  1008.4hPa NE 2.0mph /  3.2km/h 3.0mph /  4.8km/h 60% 0.00in /  0mm
05:53 73.9 °F /  23.3 °C 59.2 °F /  15.1 °C 29.78in /  1008.4hPa North 2.0mph /  3.2km/h 4.0mph /  6.4km/h 60% 0.00in /  0mm
05:58 73.9 °F /  23.3 °C 59.2 °F /  15.1 °C 29.78in /  1008.4hPa NNE 2.0mph /  3.2km/h 3.0mph /  4.8km/h 60% 0.00in /  0mm
06:03 73.7 °F /  23.2 °C 59.0 °F /  15 °C 29.78in /  1008.4hPa NNE 2.0mph /  3.2km/h 3.0mph /  4.8km/h 60% 0.00in /  0mm
06:08 73.5 °F /  23.1 °C 59.2 °F /  15.1 °C 29.78in /  1008.4hPa NNE 3.0mph /  4.8km/h 3.0mph /  4.8km/h 61% 0.00in /  0mm
06:13 73.3 °F /  22.9 °C 59.0 °F /  15 °C 29.78in /  1008.4hPa NNE 1.0mph /  1.6km/h 4.0mph /  6.4km/h 61% 0.00in /  0mm
06:18 73.2 °F /  22.9 °C 59.0 °F /  15 °C 29.78in /  1008.4hPa NNE 1.0mph /  1.6km/h 3.0mph /  4.8km/h 61% 0.00in /  0mm
06:23 73.0 °F /  22.8 °C 59.2 °F /  15.1 °C 29.78in /  1008.4hPa NNE 3.0mph /  4.8km/h 3.0mph /  4.8km/h 62% 0.00in /  0mm
06:28 73.1 °F /  22.8 °C 59.3 °F /  15.2 °C 29.78in /  1008.4hPa NNE 2.0mph /  3.2km/h 4.0mph /  6.4km/h 62% 0.00in /  0mm
06:33 73.1 °F /  22.8 °C 59.3 °F /  15.2 °C 29.78in /  1008.4hPa NE 2.0mph /  3.2km/h 4.0mph /  6.4km/h 62% 0.00in /  0mm
06:38 73.1 °F /  22.8 °C 59.3 °F /  15.2 °C 29.79in /  1008.7hPa NE 3.0mph /  4.8km/h 5.0mph /  8km/h 62% 0.00in /  0mm
06:43 73.3 °F /  22.9 °C 59.0 °F /  15 °C 29.79in /  1008.7hPa NE 3.0mph /  4.8km/h 4.0mph /  6.4km/h 61% 0.00in /  0mm
06:48 73.3 °F /  22.9 °C 59.0 °F /  15 °C 29.79in /  1008.7hPa NNE 2.0mph /  3.2km/h 4.0mph /  6.4km/h 61% 0.00in /  0mm
06:53 73.5 °F /  23.1 °C 59.2 °F /  15.1 °C 29.79in /  1008.7hPa NE 2.0mph /  3.2km/h 5.0mph /  8km/h 61% 0.00in /  0mm
06:58 73.6 °F /  23.1 °C 59.3 °F /  15.2 °C 29.79in /  1008.7hPa ENE 2.0mph /  3.2km/h 4.0mph /  6.4km/h 61% 0.00in /  0mm
07:03 73.8 °F /  23.2 °C 59.5 °F /  15.3 °C 29.79in /  1008.7hPa NE 2.0mph /  3.2km/h 6.0mph /  9.7km/h 61% 0.00in /  0mm
07:08 74.0 °F /  23.3 °C 59.7 °F /  15.4 °C 29.80in /  1009hPa NE 3.0mph /  4.8km/h 6.0mph /  9.7km/h 61% 0.00in /  0mm
07:13 74.1 °F /  23.4 °C 59.8 °F /  15.4 °C 29.80in /  1009hPa NE 3.0mph /  4.8km/h 5.0mph /  8km/h 61% 0.00in /  0mm
07:18 74.2 °F /  23.4 °C 59.9 °F /  15.5 °C 29.80in /  1009hPa NNE 4.0mph /  6.4km/h 6.0mph /  9.7km/h 61% 0.00in /  0mm
07:23 74.4 °F /  23.6 °C 60.1 °F /  15.6 °C 29.80in /  1009hPa NNE 5.0mph /  8km/h 6.0mph /  9.7km/h 61% 0.00in /  0mm
07:28 74.6 °F /  23.7 °C 60.3 °F /  15.7 °C 29.80in /  1009hPa NNE 5.0mph /  8km/h 6.0mph /  9.7km/h 61% 0.00in /  0mm
07:33 74.7 °F /  23.7 °C 60.4 °F /  15.8 °C 29.79in /  1008.7hPa NE 3.0mph /  4.8km/h 5.0mph /  8km/h 61% 0.00in /  0mm
07:38 74.8 °F /  23.8 °C 60.5 °F /  15.8 °C 29.79in /  1008.7hPa NE 2.0mph /  3.2km/h 5.0mph /  8km/h 61% 0.00in /  0mm
07:43 74.9 °F /  23.8 °C 60.6 °F /  15.9 °C 29.79in /  1008.7hPa NE 4.0mph /  6.4km/h 6.0mph /  9.7km/h 61% 0.00in /  0mm
07:48 75.2 °F /  24 °C 60.8 °F /  16 °C 29.79in /  1008.7hPa NNE 3.0mph /  4.8km/h 5.0mph /  8km/h 61% 0.00in /  0mm
07:53 75.5 °F /  24.2 °C 61.1 °F /  16.2 °C 29.79in /  1008.7hPa NNE 5.0mph /  8km/h 5.0mph /  8km/h 61% 0.00in /  0mm
07:58 75.7 °F /  24.3 °C 61.3 °F /  16.3 °C 29.79in /  1008.7hPa North 2.0mph /  3.2km/h 3.0mph /  4.8km/h 61% 0.00in /  0mm
08:03 75.9 °F /  24.4 °C 61.5 °F /  16.4 °C 29.79in /  1008.7hPa NNE 2.0mph /  3.2km/h 5.0mph /  8km/h 61% 0.00in /  0mm
08:08 76.2 °F /  24.6 °C 61.8 °F /  16.6 °C 29.80in /  1009hPa NNE 2.0mph /  3.2km/h 4.0mph /  6.4km/h 61% 0.00in /  0mm
08:13 76.6 °F /  24.8 °C 62.6 °F /  17 °C 29.80in /  1009hPa North 2.0mph /  3.2km/h 5.0mph /  8km/h 62% 0.00in /  0mm
08:18 76.8 °F /  24.9 °C 62.8 °F /  17.1 °C 29.80in /  1009hPa NE 2.0mph /  3.2km/h 5.0mph /  8km/h 62% 0.00in /  0mm
08:23 77.1 °F /  25.1 °C 62.6 °F /  17 °C 29.80in /  1009hPa NNE 3.0mph /  4.8km/h 4.0mph /  6.4km/h 61% 0.00in /  0mm
08:28 77.6 °F /  25.3 °C 63.1 °F /  17.3 °C 29.80in /  1009hPa NE 3.0mph /  4.8km/h 5.0mph /  8km/h 61% 0.00in /  0mm
08:33 77.9 °F /  25.5 °C 62.4 °F /  16.9 °C 29.80in /  1009hPa NE 6.0mph /  9.7km/h 6.0mph /  9.7km/h 59% 0.00in /  0mm
08:38 78.4 °F /  25.8 °C 63.4 °F /  17.4 °C 29.80in /  1009hPa ENE 3.0mph /  4.8km/h 4.0mph /  6.4km/h 60% 0.00in /  0mm
08:43 78.8 °F /  26 °C 62.3 °F /  16.8 °C 29.80in /  1009hPa ENE 3.0mph /  4.8km/h 8.0mph /  12.9km/h 57% 0.00in /  0mm
08:48 79.2 °F /  26.2 °C 63.2 °F /  17.3 °C 29.80in /  1009hPa NNE 2.0mph /  3.2km/h 3.0mph /  4.8km/h 58% 0.00in /  0mm
08:54 79.7 °F /  26.5 °C 63.1 °F /  17.3 °C 29.80in /  1009hPa NE 2.0mph /  3.2km/h 4.0mph /  6.4km/h 57% 0.00in /  0mm
08:59 80.0 °F /  26.7 °C 62.4 °F /  16.9 °C 29.80in /  1009hPa ENE 4.0mph /  6.4km/h 5.0mph /  8km/h 55% 0.00in /  0mm
09:04 80.4 °F /  26.9 °C 62.8 °F /  17.1 °C 29.80in /  1009hPa NE 5.0mph /  8km/h 6.0mph /  9.7km/h 55% 0.00in /  0mm
09:09 80.9 °F /  27.2 °C 62.7 °F /  17.1 °C 29.80in /  1009hPa NE 3.0mph /  4.8km/h 5.0mph /  8km/h 54% 0.00in /  0mm
09:14 81.3 °F /  27.4 °C 63.1 °F /  17.3 °C 29.80in /  1009hPa NE 4.0mph /  6.4km/h 5.0mph /  8km/h 54% 0.00in /  0mm
09:19 81.7 °F /  27.6 °C 63.5 °F /  17.5 °C 29.80in /  1009hPa NE 3.0mph /  4.8km/h 4.0mph /  6.4km/h 54% 0.00in /  0mm
09:24 82.1 °F /  27.8 °C 63.8 °F /  17.7 °C 29.80in /  1009hPa East 1.0mph /  1.6km/h 4.0mph /  6.4km/h 54% 0.00in /  0mm
09:29 82.6 °F /  28.1 °C 63.8 °F /  17.7 °C 29.80in /  1009hPa NE 1.0mph /  1.6km/h 4.0mph /  6.4km/h 53% 0.00in /  0mm
09:34 82.7 °F /  28.2 °C 63.3 °F /  17.4 °C 29.80in /  1009hPa East 5.0mph /  8km/h 5.0mph /  8km/h 52% 0.00in /  0mm
09:39 82.9 °F /  28.3 °C 63.5 °F /  17.5 °C 29.80in /  1009hPa ENE 3.0mph /  4.8km/h 5.0mph /  8km/h 52% 0.00in /  0mm
09:44 83.3 °F /  28.5 °C 63.9 °F /  17.7 °C 29.80in /  1009hPa NE 2.0mph /  3.2km/h 4.0mph /  6.4km/h 52% 0.00in /  0mm
09:49 83.5 °F /  28.6 °C 64.6 °F /  18.1 °C 29.80in /  1009hPa NE 4.0mph /  6.4km/h 4.0mph /  6.4km/h 53% 0.00in /  0mm
09:54 84.0 °F /  28.9 °C 64.5 °F /  18.1 °C 29.80in /  1009hPa East 2.0mph /  3.2km/h 5.0mph /  8km/h 52% 0.00in /  0mm
09:59 84.4 °F /  29.1 °C 65.9 °F /  18.8 °C 29.80in /  1009hPa NNE 3.0mph /  4.8km/h 4.0mph /  6.4km/h 54% 0.00in /  0mm
10:04 84.9 °F /  29.4 °C 65.3 °F /  18.5 °C 29.80in /  1009hPa North 1.0mph /  1.6km/h 4.0mph /  6.4km/h 52% 0.00in /  0mm
10:09 85.0 °F /  29.4 °C 64.9 °F /  18.3 °C 29.80in /  1009hPa NNW 3.0mph /  4.8km/h 5.0mph /  8km/h 51% 0.00in /  0mm
10:14 84.9 °F /  29.4 °C 65.3 °F /  18.5 °C 29.80in /  1009hPa NE 2.0mph /  3.2km/h 4.0mph /  6.4km/h 52% 0.00in /  0mm
10:19 85.0 °F /  29.4 °C 65.4 °F /  18.6 °C 29.80in /  1009hPa NNW 3.0mph /  4.8km/h 5.0mph /  8km/h 52% 0.00in /  0mm
10:24 85.3 °F /  29.6 °C 65.1 °F /  18.4 °C 29.80in /  1009hPa NNE 4.0mph /  6.4km/h 5.0mph /  8km/h 51% 0.00in /  0mm
10:29 85.5 °F /  29.7 °C 65.9 °F /  18.8 °C 29.80in /  1009hPa ENE 2.0mph /  3.2km/h 5.0mph /  8km/h 52% 0.00in /  0mm
10:34 85.8 °F /  29.9 °C 66.2 °F /  19 °C 29.79in /  1008.7hPa NNE 2.0mph /  3.2km/h 4.0mph /  6.4km/h 52% 0.00in /  0mm
10:39 86.1 °F /  30.1 °C 67.5 °F /  19.7 °C 29.79in /  1008.7hPa NE 3.0mph /  4.8km/h 4.0mph /  6.4km/h 54% 0.00in /  0mm
10:44 86.2 °F /  30.1 °C 64.8 °F /  18.2 °C 29.79in /  1008.7hPa NE 3.0mph /  4.8km/h 5.0mph /  8km/h 49% 0.00in /  0mm
10:49 86.6 °F /  30.3 °C 64.6 °F /  18.1 °C 29.79in /  1008.7hPa NNW 4.0mph /  6.4km/h 5.0mph /  8km/h 48% 0.00in /  0mm
10:54 86.8 °F /  30.4 °C 64.8 °F /  18.2 °C 29.79in /  1008.7hPa North 2.0mph /  3.2km/h 6.0mph /  9.7km/h 48% 0.00in /  0mm
10:59 87.2 °F /  30.7 °C 65.1 °F /  18.4 °C 29.79in /  1008.7hPa NE 4.0mph /  6.4km/h 7.0mph /  11.3km/h 48% 0.00in /  0mm
11:04 87.3 °F /  30.7 °C 65.2 °F /  18.4 °C 29.79in /  1008.7hPa NE 3.0mph /  4.8km/h 7.0mph /  11.3km/h 48% 0.00in /  0mm
11:09 87.3 °F /  30.7 °C 64.0 °F /  17.8 °C 29.79in /  1008.7hPa NE 4.0mph /  6.4km/h 8.0mph /  12.9km/h 46% 0.00in /  0mm
11:14 87.7 °F /  30.9 °C 65.6 °F /  18.7 °C 29.79in /  1008.7hPa NE 4.0mph /  6.4km/h 8.0mph /  12.9km/h 48% 0.00in /  0mm
11:19 87.7 °F /  30.9 °C 64.4 °F /  18 °C 29.79in /  1008.7hPa NNE 4.0mph /  6.4km/h 6.0mph /  9.7km/h 46% 0.00in /  0mm
11:24 88.1 °F /  31.2 °C 64.7 °F /  18.2 °C 29.79in /  1008.7hPa NE 4.0mph /  6.4km/h 7.0mph /  11.3km/h 46% 0.00in /  0mm
11:29 88.1 °F /  31.2 °C 64.1 °F /  17.8 °C 29.79in /  1008.7hPa ENE 5.0mph /  8km/h 9.0mph /  14.5km/h 45% 0.00in /  0mm
11:34 88.5 °F /  31.4 °C 64.5 °F /  18.1 °C 29.79in /  1008.7hPa NE 4.0mph /  6.4km/h 8.0mph /  12.9km/h 45% 0.00in /  0mm
11:39 88.7 °F /  31.5 °C 64.7 °F /  18.2 °C 29.78in /  1008.4hPa East 1.0mph /  1.6km/h 9.0mph /  14.5km/h 45% 0.00in /  0mm
11:44 89.1 °F /  31.7 °C 63.7 °F /  17.6 °C 29.78in /  1008.4hPa NE 6.0mph /  9.7km/h 9.0mph /  14.5km/h 43% 0.00in /  0mm
11:49 89.2 °F /  31.8 °C 62.4 °F /  16.9 °C 29.78in /  1008.4hPa NNE 8.0mph /  12.9km/h 10.0mph /  16.1km/h 41% 0.00in /  0mm
11:54 89.3 °F /  31.8 °C 61.8 °F /  16.6 °C 29.78in /  1008.4hPa ENE 6.0mph /  9.7km/h 10.0mph /  16.1km/h 40% 0.00in /  0mm
11:59 89.3 °F /  31.8 °C 62.5 °F /  16.9 °C 29.78in /  1008.4hPa ENE 3.0mph /  4.8km/h 10.0mph /  16.1km/h 41% 0.00in /  0mm
12:04 89.5 °F /  31.9 °C 62.0 °F /  16.7 °C 29.77in /  1008hPa ENE 2.0mph /  3.2km/h 7.0mph /  11.3km/h 40% 0.00in /  0mm
12:09 89.9 °F /  32.2 °C 63.8 °F /  17.7 °C 29.78in /  1008.4hPa NNE 5.0mph /  8km/h 8.0mph /  12.9km/h 42% 0.00in /  0mm
12:14 90.0 °F /  32.2 °C 63.8 °F /  17.7 °C 29.77in /  1008hPa NNE 6.0mph /  9.7km/h 8.0mph /  12.9km/h 42% 0.00in /  0mm
12:19 90.0 °F /  32.2 °C 63.8 °F /  17.7 °C 29.77in /  1008hPa NNE 5.0mph /  8km/h 9.0mph /  14.5km/h 42% 0.00in /  0mm
12:24 90.2 °F /  32.3 °C 62.6 °F /  17 °C 29.77in /  1008hPa NE 2.0mph /  3.2km/h 6.0mph /  9.7km/h 40% 0.00in /  0mm
12:29 90.6 °F /  32.6 °C 63.0 °F /  17.2 °C 29.77in /  1008hPa NE 2.0mph /  3.2km/h 6.0mph /  9.7km/h 40% 0.00in /  0mm
12:34 90.6 °F /  32.6 °C 62.3 °F /  16.8 °C 29.77in /  1008hPa NE 5.0mph /  8km/h 9.0mph /  14.5km/h 39% 0.00in /  0mm
12:39 90.8 °F /  32.7 °C 63.2 °F /  17.3 °C 29.77in /  1008hPa NE 3.0mph /  4.8km/h 6.0mph /  9.7km/h 40% 0.00in /  0mm
12:44 91.0 °F /  32.8 °C 60.4 °F /  15.8 °C 29.77in /  1008hPa NNE 3.0mph /  4.8km/h 12.0mph /  19.3km/h 36% 0.00in /  0mm
12:50 91.3 °F /  32.9 °C 62.2 °F /  16.8 °C 29.77in /  1008hPa NE 5.0mph /  8km/h 11.0mph /  17.7km/h 38% 0.00in /  0mm
12:55 91.6 °F /  33.1 °C 62.4 °F /  16.9 °C 29.76in /  1007.7hPa ENE 6.0mph /  9.7km/h 7.0mph /  11.3km/h 38% 0.00in /  0mm
13:00 92.0 °F /  33.3 °C 61.2 °F /  16.2 °C 29.76in /  1007.7hPa NE 9.0mph /  14.5km/h 10.0mph /  16.1km/h 36% 0.00in /  0mm
13:05 91.8 °F /  33.2 °C 62.6 °F /  17 °C 29.76in /  1007.7hPa North 3.0mph /  4.8km/h 10.0mph /  16.1km/h 38% 0.00in /  0mm
13:10 92.4 °F /  33.6 °C 63.1 °F /  17.3 °C 29.76in /  1007.7hPa NE 8.0mph /  12.9km/h 8.0mph /  12.9km/h 38% 0.00in /  0mm
13:15 92.1 °F /  33.4 °C 62.1 °F /  16.7 °C 29.76in /  1007.7hPa ENE 4.0mph /  6.4km/h 10.0mph /  16.1km/h 37% 0.00in /  0mm
13:20 92.2 °F /  33.4 °C 64.4 °F /  18 °C 29.75in /  1007.3hPa East 4.0mph /  6.4km/h 10.0mph /  16.1km/h 40% 0.00in /  0mm
13:25 92.4 °F /  33.6 °C 63.1 °F /  17.3 °C 29.75in /  1007.3hPa NNW 3.0mph /  4.8km/h 11.0mph /  17.7km/h 38% 0.00in /  0mm
13:30 92.7 °F /  33.7 °C 62.6 °F /  17 °C 29.75in /  1007.3hPa NNE 5.0mph /  8km/h 14.0mph /  22.5km/h 37% 0.00in /  0mm
13:35 92.8 °F /  33.8 °C 64.2 °F /  17.9 °C 29.75in /  1007.3hPa NE 8.0mph /  12.9km/h 14.0mph /  22.5km/h 39% 0.00in /  0mm
13:40 92.8 °F /  33.8 °C 62.7 °F /  17.1 °C 29.75in /  1007.3hPa ENE 9.0mph /  14.5km/h 12.0mph /  19.3km/h 37% 0.00in /  0mm
13:45 93.0 °F /  33.9 °C 62.9 °F /  17.2 °C 29.75in /  1007.3hPa NE 8.0mph /  12.9km/h 10.0mph /  16.1km/h 37% 0.00in /  0mm
13:50 92.8 °F /  33.8 °C 62.7 °F /  17.1 °C 29.75in /  1007.3hPa NNE 7.0mph /  11.3km/h 12.0mph /  19.3km/h 37% 0.00in /  0mm
13:55 93.0 °F /  33.9 °C 63.7 °F /  17.6 °C 29.75in /  1007.3hPa NNE 6.0mph /  9.7km/h 14.0mph /  22.5km/h 38% 0.00in /  0mm
14:00 93.2 °F /  34 °C 62.3 °F /  16.8 °C 29.75in /  1007.3hPa NNE 7.0mph /  11.3km/h 14.0mph /  22.5km/h 36% 0.00in /  0mm
14:05 93.5 °F /  34.2 °C 62.6 °F /  17 °C 29.75in /  1007.3hPa NNW 3.0mph /  4.8km/h 9.0mph /  14.5km/h 36% 0.00in /  0mm
14:10 93.5 °F /  34.2 °C 62.6 °F /  17 °C 29.74in /  1007hPa NE 4.0mph /  6.4km/h 10.0mph /  16.1km/h 36% 0.00in /  0mm
14:15 93.7 °F /  34.3 °C 63.5 °F /  17.5 °C 29.74in /  1007hPa North 10.0mph /  16.1km/h 10.0mph /  16.1km/h 37% 0.00in /  0mm
14:20 94.0 °F /  34.4 °C 63.0 °F /  17.2 °C 29.73in /  1006.7hPa NE 9.0mph /  14.5km/h 14.0mph /  22.5km/h 36% 0.00in /  0mm
14:25 93.9 °F /  34.4 °C 62.9 °F /  17.2 °C 29.73in /  1006.7hPa ENE 6.0mph /  9.7km/h 11.0mph /  17.7km/h 36% 0.00in /  0mm
14:30 94.0 °F /  34.4 °C 63.0 °F /  17.2 °C 29.73in /  1006.7hPa NE 7.0mph /  11.3km/h 14.0mph /  22.5km/h 36% 0.00in /  0mm
14:35 93.8 °F /  34.3 °C 63.6 °F /  17.6 °C 29.73in /  1006.7hPa NNE 6.0mph /  9.7km/h 12.0mph /  19.3km/h 37% 0.00in /  0mm
14:40 94.2 °F /  34.6 °C 64.0 °F /  17.8 °C 29.72in /  1006.3hPa North 6.0mph /  9.7km/h 12.0mph /  19.3km/h 37% 0.00in /  0mm
14:45 94.9 °F /  34.9 °C 63.8 °F /  17.7 °C 29.72in /  1006.3hPa North 10.0mph /  16.1km/h 13.0mph /  20.9km/h 36% 0.00in /  0mm
14:50 94.6 °F /  34.8 °C 64.3 °F /  17.9 °C 29.72in /  1006.3hPa NNW 7.0mph /  11.3km/h 10.0mph /  16.1km/h 37% 0.00in /  0mm
14:55 93.9 °F /  34.4 °C 62.9 °F /  17.2 °C 29.72in /  1006.3hPa NNW 6.0mph /  9.7km/h 13.0mph /  20.9km/h 36% 0.00in /  0mm
15:00 93.9 °F /  34.4 °C 62.9 °F /  17.2 °C 29.72in /  1006.3hPa North 6.0mph /  9.7km/h 12.0mph /  19.3km/h 36% 0.00in /  0mm
15:05 95.0 °F /  35 °C 62.3 °F /  16.8 °C 29.71in /  1006hPa NNW 9.0mph /  14.5km/h 16.0mph /  25.7km/h 34% 0.00in /  0mm
15:10 94.6 °F /  34.8 °C 62.7 °F /  17.1 °C 29.71in /  1006hPa North 11.0mph /  17.7km/h 12.0mph /  19.3km/h 35% 0.00in /  0mm
15:15 94.6 °F /  34.8 °C 63.5 °F /  17.5 °C 29.71in /  1006hPa NNW 13.0mph /  20.9km/h 18.0mph /  29km/h 36% 0.00in /  0mm
15:20 94.6 °F /  34.8 °C 62.7 °F /  17.1 °C 29.71in /  1006hPa NNE 7.0mph /  11.3km/h 14.0mph /  22.5km/h 35% 0.00in /  0mm
15:25 94.9 °F /  34.9 °C 63.0 °F /  17.2 °C 29.71in /  1006hPa NNE 12.0mph /  19.3km/h 12.0mph /  19.3km/h 35% 0.00in /  0mm
15:30 95.3 °F /  35.2 °C 63.3 °F /  17.4 °C 29.71in /  1006hPa NE 9.0mph /  14.5km/h 11.0mph /  17.7km/h 35% 0.00in /  0mm
15:35 95.0 °F /  35 °C 63.9 °F /  17.7 °C 29.71in /  1006hPa NE 7.0mph /  11.3km/h 13.0mph /  20.9km/h 36% 0.00in /  0mm
15:40 94.6 °F /  34.8 °C 61.9 °F /  16.6 °C 29.71in /  1006hPa NNE 7.0mph /  11.3km/h 15.0mph /  24.1km/h 34% 0.00in /  0mm
15:45 94.0 °F /  34.4 °C 63.0 °F /  17.2 °C 29.71in /  1006hPa NNE 8.0mph /  12.9km/h 10.0mph /  16.1km/h 36% 0.00in /  0mm
15:50 94.6 °F /  34.8 °C 65.1 °F /  18.4 °C 29.71in /  1006hPa ENE 4.0mph /  6.4km/h 11.0mph /  17.7km/h 38% 0.00in /  0mm
15:55 94.7 °F /  34.8 °C 64.4 °F /  18 °C 29.70in /  1005.6hPa NNE 7.0mph /  11.3km/h 11.0mph /  17.7km/h 37% 0.00in /  0mm
16:00 94.3 °F /  34.6 °C 63.3 °F /  17.4 °C 29.70in /  1005.6hPa NW 3.0mph /  4.8km/h 13.0mph /  20.9km/h 36% 0.00in /  0mm
16:05 93.7 °F /  34.3 °C 64.3 °F /  17.9 °C 29.70in /  1005.6hPa NNE 6.0mph /  9.7km/h 9.0mph /  14.5km/h 38% 0.00in /  0mm
16:10 94.1 °F /  34.5 °C 63.9 °F /  17.7 °C 29.70in /  1005.6hPa NE 6.0mph /  9.7km/h 11.0mph /  17.7km/h 37% 0.00in /  0mm
16:15 94.5 °F /  34.7 °C 65.7 °F /  18.7 °C 29.70in /  1005.6hPa NNE 12.0mph /  19.3km/h 12.0mph /  19.3km/h 39% 0.00in /  0mm
16:20 94.8 °F /  34.9 °C 65.3 °F /  18.5 °C 29.70in /  1005.6hPa NNE 7.0mph /  11.3km/h 13.0mph /  20.9km/h 38% 0.00in /  0mm
16:25 94.2 °F /  34.6 °C 64.0 °F /  17.8 °C 29.70in /  1005.6hPa NNE 9.0mph /  14.5km/h 14.0mph /  22.5km/h 37% 0.00in /  0mm
16:30 94.3 °F /  34.6 °C 64.1 °F /  17.8 °C 29.69in /  1005.3hPa NNW 8.0mph /  12.9km/h 16.0mph /  25.7km/h 37% 0.00in /  0mm
16:35 94.4 °F /  34.7 °C 64.9 °F /  18.3 °C 29.69in /  1005.3hPa NW 10.0mph /  16.1km/h 15.0mph /  24.1km/h 38% 0.00in /  0mm
16:40 94.0 °F /  34.4 °C 63.8 °F /  17.7 °C 29.69in /  1005.3hPa North 11.0mph /  17.7km/h 13.0mph /  20.9km/h 37% 0.00in /  0mm
16:45 94.3 °F /  34.6 °C 64.1 °F /  17.8 °C 29.69in /  1005.3hPa NNE 7.0mph /  11.3km/h 13.0mph /  20.9km/h 37% 0.00in /  0mm
16:50 94.4 °F /  34.7 °C 65.7 °F /  18.7 °C 29.69in /  1005.3hPa NNE 7.0mph /  11.3km/h 10.0mph /  16.1km/h 39% 0.00in /  0mm
16:55 94.7 °F /  34.8 °C 65.2 °F /  18.4 °C 29.69in /  1005.3hPa North 11.0mph /  17.7km/h 14.0mph /  22.5km/h 38% 0.00in /  0mm
17:00 95.0 °F /  35 °C 65.4 °F /  18.6 °C 29.69in /  1005.3hPa NW 11.0mph /  17.7km/h 14.0mph /  22.5km/h 38% 0.00in /  0mm
17:05 94.5 °F /  34.7 °C 64.2 °F /  17.9 °C 29.68in /  1005hPa NW 13.0mph /  20.9km/h 19.0mph /  30.6km/h 37% 0.00in /  0mm
17:10 94.4 °F /  34.7 °C 64.1 °F /  17.8 °C 29.68in /  1005hPa NNW 6.0mph /  9.7km/h 14.0mph /  22.5km/h 37% 0.00in /  0mm
17:15 94.6 °F /  34.8 °C 66.6 °F /  19.2 °C 29.68in /  1005hPa North 5.0mph /  8km/h 18.0mph /  29km/h 40% 0.00in /  0mm
17:20 94.5 °F /  34.7 °C 64.2 °F /  17.9 °C 29.68in /  1005hPa NNE 12.0mph /  19.3km/h 17.0mph /  27.4km/h 37% 0.00in /  0mm
17:25 94.2 °F /  34.6 °C 64.7 °F /  18.2 °C 29.68in /  1005hPa North 8.0mph /  12.9km/h 11.0mph /  17.7km/h 38% 0.00in /  0mm
17:31 94.2 °F /  34.6 °C 65.5 °F /  18.6 °C 29.68in /  1005hPa North 6.0mph /  9.7km/h 14.0mph /  22.5km/h 39% 0.00in /  0mm
17:36 94.4 °F /  34.7 °C 64.9 °F /  18.3 °C 29.68in /  1005hPa NNW 9.0mph /  14.5km/h 12.0mph /  19.3km/h 38% 0.00in /  0mm
17:41 94.4 °F /  34.7 °C 64.9 °F /  18.3 °C 29.68in /  1005hPa North 11.0mph /  17.7km/h 12.0mph /  19.3km/h 38% 0.00in /  0mm
17:46 94.1 °F /  34.5 °C 64.6 °F /  18.1 °C 29.68in /  1005hPa NW 7.0mph /  11.3km/h 14.0mph /  22.5km/h 38% 0.00in /  0mm
17:51 94.0 °F /  34.4 °C 65.3 °F /  18.5 °C 29.68in /  1005hPa NE 9.0mph /  14.5km/h 14.0mph /  22.5km/h 39% 0.00in /  0mm
17:56 94.1 °F /  34.5 °C 65.4 °F /  18.6 °C 29.68in /  1005hPa ENE 8.0mph /  12.9km/h 13.0mph /  20.9km/h 39% 0.00in /  0mm
18:01 93.9 °F /  34.4 °C 64.5 °F /  18.1 °C 29.68in /  1005hPa ESE 4.0mph /  6.4km/h 14.0mph /  22.5km/h 38% 0.00in /  0mm
18:06 93.8 °F /  34.3 °C 65.1 °F /  18.4 °C 29.68in /  1005hPa North 6.0mph /  9.7km/h 8.0mph /  12.9km/h 39% 0.00in /  0mm
18:11 94.0 °F /  34.4 °C 65.3 °F /  18.5 °C 29.68in /  1005hPa North 12.0mph /  19.3km/h 13.0mph /  20.9km/h 39% 0.00in /  0mm
18:16 93.9 °F /  34.4 °C 65.2 °F /  18.4 °C 29.67in /  1004.6hPa NNE 12.0mph /  19.3km/h 12.0mph /  19.3km/h 39% 0.00in /  0mm
18:21 93.7 °F /  34.3 °C 65.0 °F /  18.3 °C 29.68in /  1005hPa North 11.0mph /  17.7km/h 16.0mph /  25.7km/h 39% 0.00in /  0mm
18:26 93.6 °F /  34.2 °C 64.9 °F /  18.3 °C 29.67in /  1004.6hPa NNE 9.0mph /  14.5km/h 9.0mph /  14.5km/h 39% 0.00in /  0mm
18:31 93.4 °F /  34.1 °C 64.8 °F /  18.2 °C 29.68in /  1005hPa NNW 10.0mph /  16.1km/h 14.0mph /  22.5km/h 39% 0.00in /  0mm
18:36 93.2 °F /  34 °C 64.6 °F /  18.1 °C 29.68in /  1005hPa North 10.0mph /  16.1km/h 16.0mph /  25.7km/h 39% 0.00in /  0mm
18:42 93.2 °F /  34 °C 65.3 °F /  18.5 °C 29.68in /  1005hPa NNE 5.0mph /  8km/h 10.0mph /  16.1km/h 40% 0.00in /  0mm
18:47 93.2 °F /  34 °C 64.6 °F /  18.1 °C 29.68in /  1005hPa NNE 6.0mph /  9.7km/h 11.0mph /  17.7km/h 39% 0.00in /  0mm
18:52 93.0 °F /  33.9 °C 65.8 °F /  18.8 °C 29.68in /  1005hPa North 13.0mph /  20.9km/h 15.0mph /  24.1km/h 41% 0.00in /  0mm
18:57 92.6 °F /  33.7 °C 64.8 °F /  18.2 °C 29.68in /  1005hPa NNW 10.0mph /  16.1km/h 16.0mph /  25.7km/h 40% 0.00in /  0mm
19:02 92.4 °F /  33.6 °C 64.6 °F /  18.1 °C 29.68in /  1005hPa NNW 7.0mph /  11.3km/h 14.0mph /  22.5km/h 40% 0.00in /  0mm
19:07 92.2 °F /  33.4 °C 65.1 °F /  18.4 °C 29.68in /  1005hPa North 7.0mph /  11.3km/h 16.0mph /  25.7km/h 41% 0.00in /  0mm
19:12 92.2 °F /  33.4 °C 65.1 °F /  18.4 °C 29.68in /  1005hPa NNE 4.0mph /  6.4km/h 11.0mph /  17.7km/h 41% 0.00in /  0mm
19:17 92.1 °F /  33.4 °C 64.3 °F /  17.9 °C 29.68in /  1005hPa North 9.0mph /  14.5km/h 14.0mph /  22.5km/h 40% 0.00in /  0mm
19:22 91.9 °F /  33.3 °C 64.9 °F /  18.3 °C 29.68in /  1005hPa NW 6.0mph /  9.7km/h 9.0mph /  14.5km/h 41% 0.00in /  0mm
19:27 91.8 °F /  33.2 °C 64.8 °F /  18.2 °C 29.68in /  1005hPa NNW 7.0mph /  11.3km/h 13.0mph /  20.9km/h 41% 0.00in /  0mm
19:32 91.6 °F /  33.1 °C 65.3 °F /  18.5 °C 29.68in /  1005hPa NNW 6.0mph /  9.7km/h 11.0mph /  17.7km/h 42% 0.00in /  0mm
19:37 91.3 °F /  32.9 °C 64.3 °F /  17.9 °C 29.68in /  1005hPa NNW 3.0mph /  4.8km/h 12.0mph /  19.3km/h 41% 0.00in /  0mm
19:42 91.1 °F /  32.8 °C 64.8 °F /  18.2 °C 29.68in /  1005hPa North 3.0mph /  4.8km/h 13.0mph /  20.9km/h 42% 0.00in /  0mm
19:47 91.0 °F /  32.8 °C 65.4 °F /  18.6 °C 29.68in /  1005hPa NNE 10.0mph /  16.1km/h 10.0mph /  16.1km/h 43% 0.00in /  0mm
19:52 90.7 °F /  32.6 °C 65.2 °F /  18.4 °C 29.68in /  1005hPa NW 12.0mph /  19.3km/h 12.0mph /  19.3km/h 43% 0.00in /  0mm
19:57 90.4 °F /  32.4 °C 65.5 °F /  18.6 °C 29.68in /  1005hPa NNW 7.0mph /  11.3km/h 9.0mph /  14.5km/h 44% 0.00in /  0mm
20:02 90.2 °F /  32.3 °C 65.4 °F /  18.6 °C 29.68in /  1005hPa NNW 5.0mph /  8km/h 7.0mph /  11.3km/h 44% 0.00in /  0mm
20:07 89.9 °F /  32.2 °C 65.7 °F /  18.7 °C 29.68in /  1005hPa NNW 11.0mph /  17.7km/h 12.0mph /  19.3km/h 45% 0.00in /  0mm
20:12 89.8 °F /  32.1 °C 65.0 °F /  18.3 °C 29.68in /  1005hPa North 8.0mph /  12.9km/h 9.0mph /  14.5km/h 44% 0.00in /  0mm
20:17 89.6 °F /  32 °C 65.5 °F /  18.6 °C 29.68in /  1005hPa NW 6.0mph /  9.7km/h 8.0mph /  12.9km/h 45% 0.00in /  0mm
20:22 89.4 °F /  31.9 °C 64.6 °F /  18.1 °C 29.68in /  1005hPa NNE 7.0mph /  11.3km/h 8.0mph /  12.9km/h 44% 0.00in /  0mm
20:27 89.1 °F /  31.7 °C 65.0 °F /  18.3 °C 29.68in /  1005hPa North 4.0mph /  6.4km/h 8.0mph /  12.9km/h 45% 0.00in /  0mm
20:32 88.8 °F /  31.6 °C 64.7 °F /  18.2 °C 29.68in /  1005hPa North 5.0mph /  8km/h 7.0mph /  11.3km/h 45% 0.00in /  0mm
20:37 88.5 °F /  31.4 °C 64.5 °F /  18.1 °C 29.68in /  1005hPa NNW 4.0mph /  6.4km/h 10.0mph /  16.1km/h 45% 0.00in /  0mm
20:43 88.2 °F /  31.2 °C 64.8 °F /  18.2 °C 29.67in /  1004.6hPa NW 4.0mph /  6.4km/h 9.0mph /  14.5km/h 46% 0.00in /  0mm
20:48 87.8 °F /  31 °C 65.1 °F /  18.4 °C 29.67in /  1004.6hPa NNW 3.0mph /  4.8km/h 6.0mph /  9.7km/h 47% 0.00in /  0mm
20:53 87.3 °F /  30.7 °C 65.2 °F /  18.4 °C 29.68in /  1005hPa NNW 4.0mph /  6.4km/h 6.0mph /  9.7km/h 48% 0.00in /  0mm
20:58 86.8 °F /  30.4 °C 64.8 °F /  18.2 °C 29.68in /  1005hPa NNW 3.0mph /  4.8km/h 5.0mph /  8km/h 48% 0.00in /  0mm
21:03 86.3 °F /  30.2 °C 64.9 °F /  18.3 °C 29.67in /  1004.6hPa NNW 3.0mph /  4.8km/h 4.0mph /  6.4km/h 49% 0.00in /  0mm
21:08 85.9 °F /  29.9 °C 65.1 °F /  18.4 °C 29.68in /  1005hPa NNW 2.0mph /  3.2km/h 5.0mph /  8km/h 50% 0.00in /  0mm
21:13 85.5 °F /  29.7 °C 64.8 °F /  18.2 °C 29.68in /  1005hPa North 2.0mph /  3.2km/h 4.0mph /  6.4km/h 50% 0.00in /  0mm
21:18 85.1 °F /  29.5 °C 65.0 °F /  18.3 °C 29.68in /  1005hPa NNE 3.0mph /  4.8km/h 4.0mph /  6.4km/h 51% 0.00in /  0mm
21:23 84.9 °F /  29.4 °C 64.8 °F /  18.2 °C 29.68in /  1005hPa North 3.0mph /  4.8km/h 4.0mph /  6.4km/h 51% 0.00in /  0mm
21:28 84.7 °F /  29.3 °C 64.6 °F /  18.1 °C 29.68in /  1005hPa North 3.0mph /  4.8km/h 4.0mph /  6.4km/h 51% 0.00in /  0mm
21:33 84.5 °F /  29.2 °C 65.0 °F /  18.3 °C 29.68in /  1005hPa NNW 4.0mph /  6.4km/h 7.0mph /  11.3km/h 52% 0.00in /  0mm
21:38 84.5 °F /  29.2 °C 65.0 °F /  18.3 °C 29.69in /  1005.3hPa NNW 3.0mph /  4.8km/h 6.0mph /  9.7km/h 52% 0.00in /  0mm
21:43 84.3 °F /  29.1 °C 64.8 °F /  18.2 °C 29.68in /  1005hPa North 3.0mph /  4.8km/h 4.0mph /  6.4km/h 52% 0.00in /  0mm
21:48 84.1 °F /  28.9 °C 65.1 °F /  18.4 °C 29.68in /  1005hPa North 2.0mph /  3.2km/h 6.0mph /  9.7km/h 53% 0.00in /  0mm
21:53 83.8 °F /  28.8 °C 64.9 °F /  18.3 °C 29.69in /  1005.3hPa North 3.0mph /  4.8km/h 3.0mph /  4.8km/h 53% 0.00in /  0mm
21:58 83.4 °F /  28.6 °C 65.0 °F /  18.3 °C 29.69in /  1005.3hPa NNW 1.0mph /  1.6km/h 3.0mph /  4.8km/h 54% 0.00in /  0mm
22:03 83.0 °F /  28.3 °C 64.7 °F /  18.2 °C 29.69in /  1005.3hPa NNW 1.0mph /  1.6km/h 2.0mph /  3.2km/h 54% 0.00in /  0mm
22:08 82.6 °F /  28.1 °C 64.8 °F /  18.2 °C 29.69in /  1005.3hPa North 2.0mph /  3.2km/h 2.0mph /  3.2km/h 55% 0.00in /  0mm
22:13 82.2 °F /  27.9 °C 65.0 °F /  18.3 °C 29.70in /  1005.6hPa North 1.0mph /  1.6km/h 2.0mph /  3.2km/h 56% 0.00in /  0mm
22:18 82.0 °F /  27.8 °C 64.8 °F /  18.2 °C 29.70in /  1005.6hPa Calm   2.0mph /  3.2km/h 56% 0.00in /  0mm
22:23 81.7 °F /  27.6 °C 65.0 °F /  18.3 °C 29.70in /  1005.6hPa NNE 1.0mph /  1.6km/h 2.0mph /  3.2km/h 57% 0.00in /  0mm
22:28 81.7 °F /  27.6 °C 65.0 °F /  18.3 °C 29.70in /  1005.6hPa North 1.0mph /  1.6km/h 3.0mph /  4.8km/h 57% 0.00in /  0mm
22:33 81.5 °F /  27.5 °C 64.8 °F /  18.2 °C 29.70in /  1005.6hPa North 3.0mph /  4.8km/h 3.0mph /  4.8km/h 57% 0.00in /  0mm
22:38 81.4 °F /  27.4 °C 65.2 °F /  18.4 °C 29.71in /  1006hPa NNW 3.0mph /  4.8km/h 3.0mph /  4.8km/h 58% 0.00in /  0mm
22:43 81.3 °F /  27.4 °C 65.1 °F /  18.4 °C 29.71in /  1006hPa North 2.0mph /  3.2km/h 3.0mph /  4.8km/h 58% 0.00in /  0mm
22:48 81.2 °F /  27.3 °C 65.0 °F /  18.3 °C 29.71in /  1006hPa North 4.0mph /  6.4km/h 4.0mph /  6.4km/h 58% 0.00in /  0mm
22:53 81.2 °F /  27.3 °C 65.5 °F /  18.6 °C 29.71in /  1006hPa NNW 2.0mph /  3.2km/h 4.0mph /  6.4km/h 59% 0.00in /  0mm
22:58 81.0 °F /  27.2 °C 65.3 °F /  18.5 °C 29.71in /  1006hPa NNW 2.0mph /  3.2km/h 4.0mph /  6.4km/h 59% 0.00in /  0mm
23:03 80.9 °F /  27.2 °C 65.2 °F /  18.4 °C 29.71in /  1006hPa NNE 4.0mph /  6.4km/h 4.0mph /  6.4km/h 59% 0.00in /  0mm
23:08 80.8 °F /  27.1 °C 65.6 °F /  18.7 °C 29.71in /  1006hPa North 3.0mph /  4.8km/h 4.0mph /  6.4km/h 60% 0.00in /  0mm
23:13 80.7 °F /  27.1 °C 65.5 °F /  18.6 °C 29.71in /  1006hPa North 4.0mph /  6.4km/h 5.0mph /  8km/h 60% 0.00in /  0mm
23:18 80.6 °F /  27 °C 65.4 °F /  18.6 °C 29.71in /  1006hPa NNW 2.0mph /  3.2km/h 7.0mph /  11.3km/h 60% 0.00in /  0mm
23:23 80.5 °F /  26.9 °C 65.3 °F /  18.5 °C 29.71in /  1006hPa NNE 1.0mph /  1.6km/h 4.0mph /  6.4km/h 60% 0.00in /  0mm
23:28 80.4 °F /  26.9 °C 65.7 °F /  18.7 °C 29.71in /  1006hPa NNE 2.0mph /  3.2km/h 3.0mph /  4.8km/h 61% 0.00in /  0mm
23:33 80.3 °F /  26.8 °C 65.6 °F /  18.7 °C 29.71in /  1006hPa NNW 1.0mph /  1.6km/h 3.0mph /  4.8km/h 61% 0.00in /  0mm
23:38 80.1 °F /  26.7 °C 65.4 °F /  18.6 °C 29.72in /  1006.3hPa Calm   2.0mph /  3.2km/h 61% 0.00in /  0mm
23:43 80.0 °F /  26.7 °C 65.8 °F /  18.8 °C 29.71in /  1006hPa Calm   4.0mph /  6.4km/h 62% 0.00in /  0mm
23:48 79.8 °F /  26.6 °C 65.6 °F /  18.7 °C 29.72in /  1006.3hPa NNE 4.0mph /  6.4km/h 4.0mph /  6.4km/h 62% 0.00in /  0mm
23:53 79.7 °F /  26.5 °C 65.5 °F /  18.6 °C 29.72in /  1006.3hPa North 4.0mph /  6.4km/h 5.0mph /  8km/h 62% 0.00in /  0mm
23:58 79.8 °F /  26.6 °C 65.6 °F /  18.7 °C 29.72in /  1006.3hPa NE 4.0mph /  6.4km/h 7.0mph /  11.3km/h 62% 0.00in /  0mm
Compliments of Weather Underground